Time;durP1;ratioP1;P1;durP2;ratioP2;P2;SDS_P1;SDS_P2;PMS_P1;PMS_P2;Temp;Humidity;BMP_temperature;BMP_pressure;BME280_temperature;BME280_humidity;BME280_pressure;Samples;Min_cycle;Max_cycle;Signal;HPM_P1;HPM_P2
2022/12/28 00:02:22;;;;;;;;;;;;;;;5.36;100.00;100284.09;5014507;28;19944;-84
2022/12/28 00:04:48;;;;;;;;;;;;;;;5.36;100.00;100264.81;4995943;28;19968;-85
2022/12/28 00:07:13;;;;;;;;;;;;;;;5.35;100.00;100257.84;5009189;28;19921;-84
2022/12/28 00:09:38;;;;;;;;;;;;;;;5.35;100.00;100252.59;4996149;28;19921;-84
2022/12/28 00:12:04;;;;;;;;;;;;;;;5.34;100.00;100240.31;4999977;28;19936;-86
2022/12/28 00:14:30;;;;;;;;;;;;;;;5.35;100.00;100240.31;4980877;28;20377;-83
2022/12/28 00:16:55;;;;;;;;;;;;;;;5.37;100.00;100232.41;5012810;28;20059;-84
2022/12/28 00:19:20;;;;;;;;;;;;;;;5.35;100.00;100231.56;5007828;28;19918;-86
2022/12/28 00:21:46;;;;;;;;;;;;;;;5.32;100.00;100231.59;5014279;28;19921;-84
2022/12/28 00:24:18;;;;;;;;;;;;;;;5.36;100.00;100225.41;5014291;28;19941;-85
2022/12/28 00:26:43;;;;;;;;;;;;;;;5.33;100.00;100220.19;4990658;28;20008;-86
2022/12/28 00:29:09;;;;;;;;;;;;;;;5.34;100.00;100219.31;4996989;28;20313;-83
2022/12/28 00:31:34;;;;;;;;;;;;;;;5.31;100.00;100214.09;4991635;28;20346;-82
2022/12/28 00:33:59;;;;;;;;;;;;;;;5.31;100.00;100212.31;4996337;28;19924;-85
2022/12/28 00:36:25;;;;;;;;;;;;;;;5.33;100.00;100210.56;4987620;28;19925;-87
2022/12/28 00:38:50;;;;;;;;;;;;;;;5.31;100.00;100206.22;4995297;28;20008;-88
2022/12/28 00:41:15;;;;;;;;;;;;;;;5.36;100.00;100205.25;4996304;28;20011;-85
2022/12/28 00:43:41;;;;;;;;;;;;;;;5.37;100.00;100206.13;5007057;28;19944;-85
2022/12/28 00:46:06;;;;;;;;;;;;;;;5.35;100.00;100202.66;5006304;28;19921;-85
2022/12/28 00:48:31;;;;;;;;;;;;;;;5.34;100.00;100195.66;5009253;28;19922;-86
2022/12/28 00:51:01;;;;;;;;;;;;;;;5.36;100.00;100207.88;5008711;28;20396;-86
2022/12/28 00:53:26;;;;;;;;;;;;;;;5.36;100.00;100204.38;4989338;28;19962;-87
2022/12/28 00:55:51;;;;;;;;;;;;;;;5.38;100.00;100198.22;5011997;28;19921;-85
2022/12/28 00:58:16;;;;;;;;;;;;;;;5.38;100.00;100202.63;5013841;28;19923;-89
2022/12/28 01:00:41;;;;;;;;;;;;;;;5.36;100.00;100189.50;5003297;28;20696;-86
2022/12/28 01:03:07;;;;;;;;;;;;;;;5.37;100.00;100191.22;4996693;28;20434;-86
2022/12/28 01:05:32;;;;;;;;;;;;;;;5.38;100.00;100194.72;5012133;28;19926;-86
2022/12/28 01:07:57;;;;;;;;;;;;;;;5.40;100.00;100179.78;5013641;28;19924;-87
2022/12/28 01:10:22;;;;;;;;;;;;;;;5.38;100.00;100160.56;5011926;28;19921;-87
2022/12/28 01:12:48;;;;;;;;;;;;;;;5.34;100.00;100148.34;5013327;28;19924;-86
2022/12/28 01:15:13;;;;;;;;;;;;;;;5.38;100.00;100150.91;5012356;28;19917;-82
2022/12/28 01:17:38;;;;;;;;;;;;;;;5.39;100.00;100159.66;4995815;28;19917;-86
2022/12/28 03:09:20;;;;;;;;;;;;;;;5.64;100.00;100045.31;5083932;23;19932;-87
2022/12/28 03:11:45;;;;;;;;;;;;;;;5.64;100.00;100042.69;4998143;28;20351;-86
2022/12/28 03:14:13;;;;;;;;;;;;;;;5.67;100.00;100043.53;4997987;28;19956;-81
2022/12/28 03:33:13;;;;;;;;;;;;;;;5.76;100.00;100014.41;5015289;28;19924;-84
2022/12/28 03:35:45;;;;;;;;;;;;;;;5.81;100.00;100017.84;4997030;28;20287;-86
2022/12/28 03:38:12;;;;;;;;;;;;;;;5.80;100.00;100016.09;4996343;28;19925;-86
2022/12/28 03:40:37;;;;;;;;;;;;;;;5.82;100.00;100011.66;4997573;28;20403;-87
2022/12/28 03:46:24;;;;;;;;;;;;;;;5.83;100.00;100009.00;5015080;28;19936;-82
2022/12/28 03:48:50;;;;;;;;;;;;;;;5.84;100.00;100009.91;4989665;28;19926;-83
2022/12/28 03:51:18;;;;;;;;;;;;;;;5.89;100.00;100010.66;4997334;28;20324;-84
2022/12/28 03:53:44;;;;;;;;;;;;;;;5.91;100.00;100014.13;5013504;28;19914;-84
2022/12/28 03:56:14;;;;;;;;;;;;;;;5.91;100.00;100008.88;5014869;28;19925;-85
2022/12/28 03:58:40;;;;;;;;;;;;;;;5.94;100.00;100003.53;4997300;28;20288;-84
2022/12/28 04:01:05;;;;;;;;;;;;;;;5.96;100.00;100007.03;5014683;28;19917;-87
2022/12/28 04:03:31;;;;;;;;;;;;;;;5.97;100.00;100003.50;5014755;28;20276;-82
2022/12/28 04:05:56;;;;;;;;;;;;;;;6.02;100.00;100002.56;5014946;28;20372;-84
2022/12/28 04:08:22;;;;;;;;;;;;;;;6.02;100.00;100002.56;5013222;28;19928;-81
2022/12/28 04:10:47;;;;;;;;;;;;;;;6.05;100.00;99999.84;5014626;28;19928;-81
2022/12/28 04:13:12;;;;;;;;;;;;;;;6.03;100.00;99991.13;5014432;28;19925;-82
2022/12/28 04:15:37;;;;;;;;;;;;;;;6.05;100.00;99999.84;5014523;28;19917;-83
2022/12/28 04:18:03;;;;;;;;;;;;;;;6.08;100.00;99991.88;5014428;28;19936;-81
2022/12/28 04:20:28;;;;;;;;;;;;;;;6.10;100.00;100004.13;4996790;28;19921;-83
2022/12/28 04:22:53;;;;;;;;;;;;;;;6.14;100.00;100000.53;5013126;28;20020;-84
2022/12/28 04:25:22;;;;;;;;;;;;;;;6.13;100.00;99990.91;5014307;28;19965;-82
2022/12/28 04:27:47;;;;;;;;;;;;;;;6.17;100.00;99991.69;5014377;28;20296;-85
2022/12/28 04:30:12;;;;;;;;;;;;;;;6.18;100.00;99985.56;5014195;28;19917;-85
2022/12/28 04:32:37;;;;;;;;;;;;;;;6.18;100.00;99975.88;5014155;28;20380;-85
2022/12/28 04:35:03;;;;;;;;;;;;;;;6.20;100.00;99986.38;4996636;28;20020;-84
2022/12/28 04:37:28;;;;;;;;;;;;;;;6.22;100.00;99981.94;5012825;28;19949;-84
2022/12/28 04:39:54;;;;;;;;;;;;;;;6.25;100.00;99981.88;5014148;28;19924;-85
2022/12/28 04:42:19;;;;;;;;;;;;;;;6.27;100.00;99973.94;5013941;28;19918;-86
2022/12/28 04:44:44;;;;;;;;;;;;;;;6.28;100.00;99965.16;5013842;28;19972;-88
2022/12/28 04:47:12;;;;;;;;;;;;;;;6.30;100.00;99963.34;5013899;28;19918;-86
2022/12/28 08:53:31;;;;;;;;;;;;;;;7.36;100.00;99871.13;5827281;22;19933;-83
2022/12/28 08:56:09;;;;;;;;;;;;;;;7.36;100.00;99873.75;4994044;28;19929;-85
2022/12/28 08:58:34;;;;;;;;;;;;;;;7.37;100.00;99871.97;4994204;28;20502;-83
2022/12/28 09:01:06;;;;;;;;;;;;;;;7.37;100.00;99869.34;4994318;28;19922;-82
2022/12/28 09:03:34;;;;;;;;;;;;;;;7.51;100.00;99869.81;4994031;28;19917;-84
2022/12/28 09:06:01;;;;;;;;;;;;;;;7.45;100.00;99867.34;4992463;28;19980;-87
2022/12/28 09:08:26;;;;;;;;;;;;;;;7.43;100.00;99864.75;4991475;28;20017;-86
2022/12/28 09:10:51;;;;;;;;;;;;;;;7.44;100.00;99866.50;4993737;28;20012;-86
2022/12/28 09:13:16;;;;;;;;;;;;;;;7.52;100.00;99865.41;4993849;28;19918;-84
2022/12/28 09:15:42;;;;;;;;;;;;;;;7.46;100.00;99864.66;4993741;28;19917;-84
2022/12/28 09:18:07;;;;;;;;;;;;;;;7.46;100.00;99863.81;4993804;28;19925;-85
2022/12/28 09:20:33;;;;;;;;;;;;;;;7.45;100.00;99870.88;4993775;28;19922;-83
2022/12/28 09:22:58;;;;;;;;;;;;;;;7.45;100.00;99862.06;4992405;28;19918;-84
2022/12/28 09:25:24;;;;;;;;;;;;;;;7.44;100.00;99869.13;4993720;28;20369;-85
2022/12/28 09:27:49;;;;;;;;;;;;;;;7.46;100.00;99854.13;4992913;28;20369;-82
2022/12/28 09:30:14;;;;;;;;;;;;;;;7.47;100.00;99862.91;4992777;28;20265;-82
2022/12/28 09:32:39;;;;;;;;;;;;;;;7.49;100.00;99861.09;4994959;28;20024;-85
2022/12/28 09:35:05;;;;;;;;;;;;;;;7.50;100.00;99860.19;4997745;28;19961;-84
2022/12/28 09:37:30;;;;;;;;;;;;;;;7.51;100.00;99861.03;4996419;28;20359;-85
2022/12/28 09:39:55;;;;;;;;;;;;;;;7.52;100.00;99861.00;4997404;28;19924;-83
2022/12/28 09:42:24;;;;;;;;;;;;;;;7.52;100.00;99853.09;4997587;28;20017;-84
2022/12/28 09:44:56;;;;;;;;;;;;;;;7.53;100.00;99849.56;4996474;28;19957;-85
2022/12/28 09:47:24;;;;;;;;;;;;;;;7.54;100.00;99848.63;4996486;28;20384;-82
2022/12/28 09:49:56;;;;;;;;;;;;;;;7.55;100.00;99845.09;4996472;28;19918;-84
2022/12/28 09:52:26;;;;;;;;;;;;;;;7.56;100.00;99843.31;4996896;28;19963;-83
2022/12/28 09:54:51;;;;;;;;;;;;;;;7.57;100.00;99847.69;5008501;28;19921;-86
2022/12/28 09:57:17;;;;;;;;;;;;;;;7.57;100.00;99829.22;4999612;28;20404;-84
2022/12/28 09:59:43;;;;;;;;;;;;;;;7.57;100.00;99831.84;4999384;28;19979;-85
2022/12/28 10:02:22;;;;;;;;;;;;;;;7.58;100.00;99828.31;5016877;28;19917;-83
2022/12/28 10:04:48;;;;;;;;;;;;;;;7.59;100.00;99832.66;4999320;28;20004;-83
2022/12/28 10:07:13;;;;;;;;;;;;;;;7.60;100.00;99824.72;4999440;28;19918;-83
2022/12/28 10:09:39;;;;;;;;;;;;;;;7.62;100.00;99827.31;5015955;28;20000;-81
2022/12/28 10:12:15;;;;;;;;;;;;;;;7.62;100.00;99822.03;5016790;28;20262;-85
2022/12/28 10:14:41;;;;;;;;;;;;;;;7.63;100.00;99808.81;5016598;28;20356;-82
2022/12/28 10:17:08;;;;;;;;;;;;;;;7.63;100.00;99806.16;4998972;28;19918;-83
2022/12/28 10:19:33;;;;;;;;;;;;;;;7.66;100.00;99801.69;4999250;28;20370;-83
2022/12/28 10:22:03;;;;;;;;;;;;;;;7.66;100.00;99796.41;5016552;28;20017;-83
2022/12/28 10:24:29;;;;;;;;;;;;;;;7.68;100.00;99794.63;5015412;28;20351;-87
2022/12/28 10:27:02;;;;;;;;;;;;;;;7.69;100.00;99797.22;4998943;28;19918;-89
2022/12/28 10:29:30;;;;;;;;;;;;;;;7.68;100.00;99790.19;4998755;28;20290;-85
2022/12/28 10:31:59;;;;;;;;;;;;;;;7.69;100.00;99788.41;4998993;28;19960;-84
2022/12/28 10:34:25;;;;;;;;;;;;;;;7.70;100.00;99777.81;4998757;28;20385;-86
2022/12/28 10:36:51;;;;;;;;;;;;;;;7.69;100.00;99781.38;5016358;28;20004;-89
2022/12/28 10:39:35;;;;;;;;;;;;;;;7.69;100.00;99768.19;4997412;28;20372;-83
2022/12/28 10:42:01;;;;;;;;;;;;;;;7.72;100.00;99769.88;5016058;28;19924;-82
2022/12/28 10:44:28;;;;;;;;;;;;;;;7.72;100.00;99759.31;4995497;28;19917;-83
2022/12/28 10:46:58;;;;;;;;;;;;;;;7.73;100.00;99758.41;4998628;28;19917;-85
2022/12/28 10:49:25;;;;;;;;;;;;;;;7.75;100.00;99752.16;4998622;28;19925;-86
2022/12/28 10:52:02;;;;;;;;;;;;;;;7.76;100.00;99748.63;4998451;28;20306;-83
2022/12/28 10:54:30;;;;;;;;;;;;;;;7.77;100.00;99745.09;5014601;28;19921;-84
2022/12/28 10:56:55;;;;;;;;;;;;;;;7.78;100.00;99743.28;5015946;28;19918;-83
2022/12/28 10:59:26;;;;;;;;;;;;;;;7.79;100.00;99739.75;5016056;28;19925;-83
2022/12/28 11:01:52;;;;;;;;;;;;;;;7.79;100.00;99732.69;5015834;28;19924;-84
2022/12/28 11:04:19;;;;;;;;;;;;;;;7.78;100.00;99733.59;5015835;28;19917;-84
2022/12/28 11:06:50;;;;;;;;;;;;;;;7.79;100.00;99727.41;5016103;28;19914;-83
2022/12/28 11:09:23;;;;;;;;;;;;;;;7.81;100.00;99728.22;4996896;28;19918;-83
2022/12/28 11:11:49;;;;;;;;;;;;;;;7.85;100.00;99728.13;4998257;28;19922;-89
2022/12/28 11:14:14;;;;;;;;;;;;;;;7.85;100.00;99717.56;4998054;28;19921;-84
2022/12/28 11:16:40;;;;;;;;;;;;;;;7.86;100.00;99719.31;5015640;28;19918;-85
2022/12/28 11:19:06;;;;;;;;;;;;;;;7.86;100.00;99717.53;5015508;28;19968;-85
2022/12/28 11:21:32;;;;;;;;;;;;;;;7.87;100.00;99706.06;4997794;28;19988;-84
2022/12/28 11:23:57;;;;;;;;;;;;;;;7.89;100.00;99696.31;5014142;28;20011;-85
2022/12/28 11:26:25;;;;;;;;;;;;;;;7.88;100.00;99691.97;5015482;28;19960;-84
2022/12/28 11:28:51;;;;;;;;;;;;;;;7.88;100.00;99688.47;5015270;28;20012;-88
2022/12/28 11:31:26;;;;;;;;;;;;;;;7.89;100.00;99680.50;5015403;28;20360;-84
2022/12/28 11:33:53;;;;;;;;;;;;;;;7.90;100.00;99673.47;5015191;28;19918;-82
2022/12/28 11:36:22;;;;;;;;;;;;;;;7.89;100.00;99671.72;5015238;28;20387;-88
2022/12/28 11:38:49;;;;;;;;;;;;;;;7.92;100.00;99672.47;5013944;28;19933;-85
2022/12/28 11:41:18;;;;;;;;;;;;;;;7.92;100.00;99656.66;5015107;28;20447;-86
2022/12/28 11:43:49;;;;;;;;;;;;;;;7.93;100.00;99653.09;5015096;28;20060;-84
2022/12/28 11:46:20;;;;;;;;;;;;;;;7.96;100.00;99652.13;4997460;28;19917;-85
2022/12/28 11:49:02;;;;;;;;;;;;;;;7.98;100.00;99650.31;5014928;28;19917;-86
2022/12/28 11:51:34;;;;;;;;;;;;;;;7.98;100.00;99650.31;4997458;28;20298;-83
2022/12/28 11:54:00;;;;;;;;;;;;;;;7.99;100.00;99646.75;5013478;28;19921;-83
2022/12/28 11:56:26;;;;;;;;;;;;;;;8.13;100.00;99654.19;5014109;28;19987;-86
2022/12/28 11:59:12;;;;;;;;;;;;;;;8.08;100.00;99646.44;5014792;28;20365;-84
2022/12/28 12:01:39;;;;;;;;;;;;;;;8.07;100.00;99643.84;5003859;28;19921;-84
2022/12/28 12:04:05;;;;;;;;;;;;;;;8.05;100.00;99645.69;5014580;28;19918;-82
2022/12/28 12:06:42;;;;;;;;;;;;;;;8.06;100.00;99637.72;4997207;28;19963;-83
2022/12/28 12:09:20;;;;;;;;;;;;;;;8.15;100.00;99632.13;5013504;28;19918;-84
2022/12/28 12:11:46;;;;;;;;;;;;;;;8.07;100.00;99628.00;5014589;28;20416;-86
2022/12/28 12:14:11;;;;;;;;;;;;;;;8.11;100.00;99625.22;4996801;28;20402;-88
2022/12/28 12:16:47;;;;;;;;;;;;;;;8.14;100.00;99616.34;4996965;28;19969;-88
2022/12/28 12:19:27;;;;;;;;;;;;;;;8.11;100.00;99616.44;5014469;28;19921;-85
2022/12/28 12:21:58;;;;;;;;;;;;;;;8.09;100.00;99616.50;5014405;28;19917;-87
2022/12/28 12:24:36;;;;;;;;;;;;;;;8.09;100.00;99603.28;5013173;28;19957;-88
2022/12/28 12:27:03;;;;;;;;;;;;;;;8.12;100.00;99605.81;4997056;28;20401;-90
2022/12/28 12:29:44;;;;;;;;;;;;;;;8.09;100.00;99595.38;5014390;28;20372;-87
2022/12/28 12:32:29;;;;;;;;;;;;;;;8.11;100.00;99597.97;4992239;28;19929;-91
2022/12/28 12:35:05;;;;;;;;;;;;;;;8.09;100.00;99595.38;4986220;28;20016;-82
2022/12/28 12:37:36;;;;;;;;;;;;;;;8.11;100.00;99597.97;5012962;28;19917;-83
2022/12/28 12:40:20;;;;;;;;;;;;;;;8.12;100.00;99591.75;5014108;28;19917;-82
2022/12/28 12:42:57;;;;;;;;;;;;;;;8.14;100.00;99584.66;5013291;28;21277;-83
2022/12/28 12:45:42;;;;;;;;;;;;;;;8.16;100.00;99578.41;5014171;28;19924;-83
2022/12/28 12:48:25;;;;;;;;;;;;;;;8.16;100.00;99574.91;5013986;28;19952;-87
2022/12/28 12:51:16;;;;;;;;;;;;;;;8.17;100.00;99571.34;5013986;28;19924;-84
2022/12/28 12:53:41;;;;;;;;;;;;;;;8.19;100.00;99572.16;5012545;28;20376;-84
2022/12/28 12:56:21;;;;;;;;;;;;;;;8.21;100.00;99561.53;5013885;28;19928;-84
2022/12/28 12:59:05;;;;;;;;;;;;;;;8.22;100.00;99555.31;5013939;28;19929;-84
2022/12/28 13:02:02;;;;;;;;;;;;;;;8.23;100.00;99551.78;5013701;28;20320;-84
2022/12/28 13:04:30;;;;;;;;;;;;;;;8.21;100.00;99551.84;4963846;28;19917;-84
2022/12/28 13:06:57;;;;;;;;;;;;;;;8.19;100.00;99543.97;5013682;28;19970;-83
2022/12/28 13:09:24;;;;;;;;;;;;;;;8.21;100.00;99540.44;5012200;28;20384;-84
2022/12/28 13:11:49;;;;;;;;;;;;;;;8.21;100.00;99529.88;4995999;28;19989;-84
2022/12/28 13:14:19;;;;;;;;;;;;;;;8.20;100.00;99523.75;4993088;28;19941;-85
2022/12/28 13:16:50;;;;;;;;;;;;;;;8.23;100.00;99507.75;5013788;28;20008;-82
2022/12/28 13:19:18;;;;;;;;;;;;;;;8.24;100.00;99511.28;5013607;28;19956;-85
2022/12/28 13:21:47;;;;;;;;;;;;;;;8.23;100.00;99501.63;4995903;28;19917;-83
2022/12/28 13:24:24;;;;;;;;;;;;;;;8.22;100.00;99505.16;4990824;28;19925;-83
2022/12/28 13:26:50;;;;;;;;;;;;;;;8.24;100.00;99498.09;5013463;28;19925;-83
2022/12/28 13:29:20;;;;;;;;;;;;;;;8.23;100.00;99491.91;4995405;28;19918;-83
2022/12/28 13:31:48;;;;;;;;;;;;;;;8.25;100.00;99483.94;5013313;28;19928;-81
2022/12/28 13:34:18;;;;;;;;;;;;;;;8.26;100.00;99490.97;5012839;28;20387;-82
2022/12/28 13:36:48;;;;;;;;;;;;;;;8.27;100.00;99482.13;4995726;28;20462;-81
2022/12/28 13:39:13;;;;;;;;;;;;;;;8.27;100.00;99476.84;5011902;28;20426;-81
2022/12/28 13:41:50;;;;;;;;;;;;;;;8.26;100.00;99470.69;5013272;28;19996;-81
2022/12/28 13:44:37;;;;;;;;;;;;;;;8.26;100.00;99465.41;4995828;28;20351;-88
2022/12/28 13:47:03;;;;;;;;;;;;;;;8.27;100.00;99466.28;4996058;28;19936;-88
2022/12/28 13:49:31;;;;;;;;;;;;;;;8.27;100.00;99467.16;4995589;28;20356;-86
2022/12/28 13:51:57;;;;;;;;;;;;;;;8.28;100.00;99463.59;5012934;28;19929;-87
2022/12/28 13:54:23;;;;;;;;;;;;;;;8.30;100.00;99463.53;5011822;28;19922;-85
2022/12/28 13:56:50;;;;;;;;;;;;;;;8.29;100.00;99467.09;4995711;28;20007;-85
2022/12/28 13:59:17;;;;;;;;;;;;;;;8.29;100.00;99465.28;4995493;28;19918;-86
2022/12/28 14:01:44;;;;;;;;;;;;;;;8.29;100.00;99460.00;4995567;28;20288;-87
2022/12/28 14:04:12;;;;;;;;;;;;;;;8.30;100.00;99456.47;5012950;28;20315;-82
2022/12/28 14:06:38;;;;;;;;;;;;;;;8.32;100.00;99465.19;5013182;28;19917;-85
2022/12/28 14:09:04;;;;;;;;;;;;;;;8.32;100.00;99448.50;5011837;28;19960;-86
2022/12/28 14:11:29;;;;;;;;;;;;;;;8.31;100.00;99447.63;5012962;28;19949;-83
2022/12/28 14:13:55;;;;;;;;;;;;;;;8.32;100.00;99449.34;4995486;28;19917;-85
2022/12/28 14:16:21;;;;;;;;;;;;;;;8.32;100.00;99440.56;4983807;28;19957;-83
2022/12/28 14:18:47;;;;;;;;;;;;;;;8.33;100.00;99450.22;4995017;28;19922;-84
2022/12/28 14:21:12;;;;;;;;;;;;;;;8.33;100.00;99452.84;4979487;28;19918;-84
2022/12/28 14:23:38;;;;;;;;;;;;;;;8.33;100.00;99451.06;4995849;28;19926;-87
2022/12/28 14:26:09;;;;;;;;;;;;;;;8.35;100.00;99443.09;4979489;28;19921;-85
2022/12/28 14:28:37;;;;;;;;;;;;;;;8.36;100.00;99439.53;4997037;28;20005;-83
2022/12/28 14:31:04;;;;;;;;;;;;;;;8.34;100.00;99436.97;4979522;28;19925;-82
2022/12/28 14:33:31;;;;;;;;;;;;;;;8.35;100.00;99432.53;4979336;28;19969;-84
2022/12/28 14:35:58;;;;;;;;;;;;;;;8.35;100.00;99432.53;4996912;28;20404;-83
2022/12/28 14:38:30;;;;;;;;;;;;;;;8.34;100.00;99428.16;4995506;28;19925;-87
2022/12/28 14:40:57;;;;;;;;;;;;;;;8.35;100.00;99424.63;5001040;28;19941;-81
2022/12/28 14:43:24;;;;;;;;;;;;;;;8.37;100.00;99418.34;4998355;28;19921;-84
2022/12/28 14:45:50;;;;;;;;;;;;;;;8.34;100.00;99421.13;5010186;28;19920;-83
2022/12/28 14:48:32;;;;;;;;;;;;;;;8.35;100.00;99404.34;5006152;28;19921;-81
2022/12/28 14:51:02;;;;;;;;;;;;;;;8.36;100.00;99407.88;4995077;28;20369;-82
2022/12/28 14:53:28;;;;;;;;;;;;;;;8.36;100.00;99413.16;5005971;28;20400;-85
2022/12/28 14:56:02;;;;;;;;;;;;;;;8.39;100.00;99406.88;5014738;28;19921;-85
2022/12/28 14:58:42;;;;;;;;;;;;;;;8.37;100.00;99397.22;5008025;28;20033;-87
2022/12/28 15:01:08;;;;;;;;;;;;;;;8.41;100.00;99389.16;5026967;28;19923;-85
2022/12/28 15:03:50;;;;;;;;;;;;;;;8.40;100.00;99382.19;5015740;28;19917;-83
2022/12/28 15:06:16;;;;;;;;;;;;;;;8.42;100.00;99388.25;5015704;28;19913;-81
2022/12/28 15:08:41;;;;;;;;;;;;;;;8.40;100.00;99388.31;4997166;28;20296;-82
2022/12/28 15:11:08;;;;;;;;;;;;;;;8.42;100.00;99378.56;4997272;28;20373;-84
2022/12/28 15:13:33;;;;;;;;;;;;;;;8.41;100.00;99368.06;4983523;28;19918;-83
2022/12/28 15:16:00;;;;;;;;;;;;;;;8.42;100.00;99383.84;5004066;28;20000;-84
2022/12/28 15:18:26;;;;;;;;;;;;;;;8.40;100.00;99367.19;5004110;28;19940;-83
2022/12/28 15:20:51;;;;;;;;;;;;;;;8.41;100.00;99374.22;5029577;28;20443;-86
2022/12/28 15:23:17;;;;;;;;;;;;;;;8.42;100.00;99370.63;5034106;28;20012;-86
2022/12/28 15:25:42;;;;;;;;;;;;;;;8.42;100.00;99365.34;5017375;28;19924;-84
2022/12/28 15:28:07;;;;;;;;;;;;;;;8.44;100.00;99374.13;5006850;28;19976;-83
2022/12/28 15:30:32;;;;;;;;;;;;;;;8.45;100.00;99372.31;5013968;28;20428;-84
2022/12/28 15:32:58;;;;;;;;;;;;;;;8.56;100.00;99377.19;4996815;28;19925;-84
2022/12/28 15:35:23;;;;;;;;;;;;;;;8.49;100.00;99372.16;5015308;28;19924;-82
2022/12/28 15:37:48;;;;;;;;;;;;;;;8.45;100.00;99362.63;4988971;28;20333;-82
2022/12/28 15:40:14;;;;;;;;;;;;;;;8.46;100.00;99367.00;4996619;28;20296;-83
2022/12/28 15:42:42;;;;;;;;;;;;;;;8.45;100.00;99354.69;5014958;28;20016;-84
2022/12/28 15:45:07;;;;;;;;;;;;;;;8.46;100.00;99361.72;5013648;28;19925;-85
2022/12/28 15:47:33;;;;;;;;;;;;;;;8.45;100.00;99352.06;4997515;28;20424;-83
2022/12/28 15:50:01;;;;;;;;;;;;;;;8.46;100.00;99353.78;4996723;28;19925;-84
2022/12/28 15:52:27;;;;;;;;;;;;;;;8.47;100.00;99350.25;4996593;28;19925;-82
2022/12/28 15:54:52;;;;;;;;;;;;;;;8.45;100.00;99344.13;4995640;28;20288;-83
2022/12/28 15:57:17;;;;;;;;;;;;;;;8.46;100.00;99343.22;5011992;28;20172;-82
2022/12/28 15:59:42;;;;;;;;;;;;;;;8.47;100.00;99337.03;5006569;28;19962;-82
2022/12/28 16:02:09;;;;;;;;;;;;;;;8.47;100.00;99336.16;4984744;28;19932;-84
2022/12/28 16:04:34;;;;;;;;;;;;;;;8.48;100.00;99336.09;4992949;28;19957;-84
2022/12/28 16:06:59;;;;;;;;;;;;;;;8.48;100.00;99332.59;5014660;28;20007;-84
2022/12/28 16:09:24;;;;;;;;;;;;;;;8.47;100.00;99331.75;4986154;28;19949;-83
2022/12/28 16:11:50;;;;;;;;;;;;;;;8.48;100.00;99328.16;5013834;28;19928;-84
2022/12/28 16:14:15;;;;;;;;;;;;;;;8.48;100.00;99328.16;5013549;28;20385;-86
2022/12/28 16:16:41;;;;;;;;;;;;;;;8.53;100.00;99328.81;4996868;28;19918;-82
2022/12/28 16:19:07;;;;;;;;;;;;;;;8.50;100.00;99328.97;5014379;28;19914;-85
2022/12/28 16:21:33;;;;;;;;;;;;;;;8.50;100.00;99321.06;5014054;28;19963;-81
2022/12/28 16:23:59;;;;;;;;;;;;;;;8.50;100.00;99325.47;4994526;28;19964;-85
2022/12/28 16:26:24;;;;;;;;;;;;;;;8.50;100.00;99321.06;4995261;28;19917;-84
2022/12/28 16:28:50;;;;;;;;;;;;;;;8.50;100.00;99314.91;5013572;28;19975;-85
2022/12/28 16:31:20;;;;;;;;;;;;;;;8.51;100.00;99312.19;4991536;28;19925;-83
2022/12/28 16:33:45;;;;;;;;;;;;;;;8.51;100.00;99317.47;4994644;28;19924;-83
2022/12/28 16:36:18;;;;;;;;;;;;;;;8.51;100.00;99312.19;5013347;28;19922;-90
2022/12/28 16:38:44;;;;;;;;;;;;;;;8.50;100.00;99305.22;4993628;28;19959;-84
2022/12/28 16:41:09;;;;;;;;;;;;;;;8.52;100.00;99313.94;5011390;28;19921;-85
2022/12/28 16:43:34;;;;;;;;;;;;;;;8.51;100.00;99306.91;4994672;28;20540;-84
2022/12/28 16:46:04;;;;;;;;;;;;;;;8.51;100.00;99312.19;5013069;28;19956;-84
2022/12/28 16:48:29;;;;;;;;;;;;;;;8.52;100.00;99303.38;5013187;28;20269;-82
2022/12/28 16:50:58;;;;;;;;;;;;;;;8.55;100.00;99299.72;5012973;28;19921;-81
2022/12/28 16:53:23;;;;;;;;;;;;;;;8.52;100.00;99303.38;5011222;28;19921;-87
2022/12/28 16:55:49;;;;;;;;;;;;;;;8.53;100.00;99294.50;5012031;28;19928;-83
2022/12/28 16:58:14;;;;;;;;;;;;;;;8.53;100.00;99293.66;5013609;28;20373;-84
2022/12/28 17:00:39;;;;;;;;;;;;;;;8.54;100.00;99295.38;5013543;28;19922;-81
2022/12/28 17:03:04;;;;;;;;;;;;;;;8.54;100.00;99283.03;5013705;28;20008;-84
2022/12/28 17:05:34;;;;;;;;;;;;;;;8.54;100.00;99288.31;4995910;28;19924;-81
2022/12/28 17:07:59;;;;;;;;;;;;;;;8.56;100.00;99282.13;5005304;28;19981;-84
2022/12/28 17:10:24;;;;;;;;;;;;;;;8.54;100.00;99280.38;5001449;28;19918;-84
2022/12/28 17:12:50;;;;;;;;;;;;;;;8.53;100.00;99272.53;4993748;28;19928;-81
2022/12/28 17:15:15;;;;;;;;;;;;;;;8.56;100.00;99274.19;4993821;28;19918;-81
2022/12/28 17:17:40;;;;;;;;;;;;;;;8.54;100.00;99269.81;4993724;28;20049;-81
2022/12/28 17:20:06;;;;;;;;;;;;;;;8.55;100.00;99268.03;4993771;28;20004;-88
2022/12/28 17:22:32;;;;;;;;;;;;;;;8.55;100.00;99265.38;4991024;28;19925;-82
2022/12/28 17:24:57;;;;;;;;;;;;;;;8.57;100.00;99260.03;4993786;28;19918;-85
2022/12/28 17:27:23;;;;;;;;;;;;;;;8.58;100.00;99252.06;4998119;28;19922;-85
2022/12/28 17:29:48;;;;;;;;;;;;;;;8.58;100.00;99249.41;4991540;28;19929;-81
2022/12/28 17:32:14;;;;;;;;;;;;;;;8.59;100.00;99239.72;5010250;28;20395;-81
2022/12/28 17:34:41;;;;;;;;;;;;;;;8.58;100.00;99238.84;4979365;28;20272;-82
2022/12/28 17:37:07;;;;;;;;;;;;;;;8.60;100.00;99225.59;4995877;28;20381;-80
2022/12/28 17:39:41;;;;;;;;;;;;;;;8.59;100.00;99222.09;5007644;28;19975;-79
2022/12/28 17:42:06;;;;;;;;;;;;;;;8.59;100.00;99219.44;5001332;28;19943;-82
2022/12/28 17:44:32;;;;;;;;;;;;;;;8.59;100.00;99208.03;5013087;28;19918;-80
2022/12/28 17:46:57;;;;;;;;;;;;;;;8.60;100.00;99207.09;5001347;28;19925;-82
2022/12/28 17:49:22;;;;;;;;;;;;;;;8.62;100.00;99207.91;5005029;28;19961;-83
2022/12/28 17:51:48;;;;;;;;;;;;;;;8.61;100.00;99198.25;5012976;28;19917;-79
2022/12/28 17:54:14;;;;;;;;;;;;;;;8.62;100.00;99205.28;5010784;28;19958;-84
2022/12/28 17:56:40;;;;;;;;;;;;;;;8.62;100.00;99192.06;5005928;28;20053;-81
2022/12/28 17:59:06;;;;;;;;;;;;;;;8.62;100.00;99197.34;4997390;28;19922;-83
2022/12/28 18:01:31;;;;;;;;;;;;;;;8.62;100.00;99190.28;5000426;28;19926;-82
2022/12/28 18:03:56;;;;;;;;;;;;;;;8.62;100.00;99185.00;5005911;28;20395;-82
2022/12/28 18:06:22;;;;;;;;;;;;;;;8.62;100.00;99190.28;5015596;28;19921;-81
2022/12/28 18:08:49;;;;;;;;;;;;;;;8.63;100.00;99188.47;4991690;28;19925;-86
2022/12/28 18:11:14;;;;;;;;;;;;;;;8.63;100.00;99178.78;4998449;28;20363;-80
2022/12/28 18:13:40;;;;;;;;;;;;;;;8.64;100.00;99177.84;5036338;28;19921;-84
2022/12/28 18:16:06;;;;;;;;;;;;;;;8.63;100.00;99162.94;5036505;28;19917;-82
2022/12/28 18:18:32;;;;;;;;;;;;;;;8.66;100.00;99172.50;5036499;28;19960;-81
2022/12/28 18:20:58;;;;;;;;;;;;;;;8.66;100.00;99172.50;5036207;28;20008;-82
2022/12/28 18:23:23;;;;;;;;;;;;;;;8.67;100.00;99174.22;5035189;28;20007;-84
2022/12/28 18:25:48;;;;;;;;;;;;;;;8.66;100.00;99168.09;5018381;28;20422;-81
2022/12/28 18:28:14;;;;;;;;;;;;;;;8.66;100.00;99156.66;5036193;28;20272;-82
2022/12/28 18:30:39;;;;;;;;;;;;;;;8.67;100.00;99166.31;5019874;28;20273;-81
2022/12/28 18:33:04;;;;;;;;;;;;;;;8.65;100.00;99152.31;4995933;28;20044;-84
2022/12/28 18:35:30;;;;;;;;;;;;;;;8.66;100.00;99140.81;4992740;28;19938;-83
2022/12/28 18:37:55;;;;;;;;;;;;;;;8.67;100.00;99146.03;4988547;28;19928;-86
2022/12/28 18:40:20;;;;;;;;;;;;;;;8.68;100.00;99152.16;4997439;28;20024;-82
2022/12/28 18:42:46;;;;;;;;;;;;;;;8.69;100.00;99153.88;5007398;28;19921;-81
2022/12/28 18:45:11;;;;;;;;;;;;;;;8.69;100.00;99145.94;5014503;28;19922;-83
2022/12/28 18:47:36;;;;;;;;;;;;;;;8.69;100.00;99151.22;4995880;28;19940;-83
2022/12/28 18:50:02;;;;;;;;;;;;;;;8.69;100.00;99146.78;4995308;28;19937;-81
2022/12/28 18:52:30;;;;;;;;;;;;;;;8.70;100.00;99131.81;5010144;28;20024;-84
2022/12/28 18:54:55;;;;;;;;;;;;;;;8.69;100.00;99138.03;4994272;28;19922;-81
2022/12/28 18:57:20;;;;;;;;;;;;;;;8.70;100.00;99135.31;5008516;28;19921;-83
2022/12/28 18:59:45;;;;;;;;;;;;;;;8.70;100.00;99137.97;4987151;28;19928;-82
2022/12/28 19:02:11;;;;;;;;;;;;;;;8.70;100.00;99137.97;4994537;28;20262;-82